Time;durP1;ratioP1;P1;durP2;ratioP2;P2;SDS_P1;SDS_P2;PMS_P1;PMS_P2;Temp;Humidity;BMP_temperature;BMP_pressure;BME280_temperature;BME280_humidity;BME280_pressure;Samples;Min_cycle;Max_cycle;Signal;HPM_P1;HPM_P2
2023/03/23 00:01:12;;;;;;;8.27;4.50;;;14.40;99.90;;;;;;7290486;19;20211;-74
2023/03/23 00:03:39;;;;;;;9.03;3.93;;;14.40;99.90;;;;;;7306251;19;20659;-74
2023/03/23 00:06:06;;;;;;;8.83;4.13;;;14.30;99.90;;;;;;7308981;19;20191;-74
2023/03/23 00:08:44;;;;;;;7.40;4.13;;;14.30;99.90;;;;;;7287142;19;20194;-74
2023/03/23 00:11:14;;;;;;;7.90;4.50;;;14.20;99.90;;;;;;7264859;19;20196;-74
2023/03/23 00:13:41;;;;;;;8.50;4.43;;;14.20;99.90;;;;;;7290746;19;20220;-74
2023/03/23 00:16:16;;;;;;;9.23;4.40;;;14.30;99.90;;;;;;7309343;19;20194;-74
2023/03/23 00:18:47;;;;;;;7.93;3.93;;;14.30;99.90;;;;;;7264499;19;20196;-74
2023/03/23 00:21:13;;;;;;;9.00;4.70;;;14.30;99.90;;;;;;7286846;19;20285;-74
2023/03/23 00:23:40;;;;;;;9.57;4.13;;;14.20;99.90;;;;;;7296893;19;20234;-74
2023/03/23 00:26:06;;;;;;;7.73;4.10;;;14.20;99.90;;;;;;7309324;19;20181;-74
2023/03/23 00:28:32;;;;;;;8.80;4.20;;;14.10;99.90;;;;;;7287366;19;20689;-74
2023/03/23 00:31:05;;;;;;;8.03;3.90;;;14.10;99.90;;;;;;7286623;19;20212;-74
2023/03/23 00:33:37;;;;;;;9.60;4.27;;;14.20;99.90;;;;;;7286707;19;20286;-74
2023/03/23 00:36:11;;;;;;;10.57;4.70;;;14.20;99.90;;;;;;7287826;19;20195;-73
2023/03/23 00:38:38;;;;;;;9.37;4.17;;;14.10;99.90;;;;;;7286360;19;20197;-74
2023/03/23 00:41:04;;;;;;;10.83;4.83;;;14.20;99.90;;;;;;7285897;19;20648;-74
2023/03/23 00:43:32;;;;;;;10.23;4.30;;;14.20;99.90;;;;;;7284796;19;20567;-74
2023/03/23 00:46:00;;;;;;;9.20;4.30;;;14.20;99.90;;;;;;7287403;19;20308;-74
2023/03/23 00:48:28;;;;;;;8.37;4.23;;;14.20;99.90;;;;;;7285998;19;20237;-74
2023/03/23 00:50:54;;;;;;;11.33;4.90;;;14.10;99.90;;;;;;7285077;19;20192;-74
2023/03/23 00:53:20;;;;;;;8.17;4.40;;;14.20;99.90;;;;;;7284530;19;20213;-74
2023/03/23 00:55:48;;;;;;;7.93;4.30;;;14.20;99.90;;;;;;7286369;19;20198;-73
2023/03/23 00:58:15;;;;;;;8.47;4.27;;;14.30;99.90;;;;;;7285609;19;20194;-74
2023/03/23 01:00:41;;;;;;;9.50;4.37;;;14.20;99.90;;;;;;7286279;19;20184;-74
2023/03/23 01:03:11;;;;;;;9.00;4.37;;;14.20;99.90;;;;;;7306664;19;20651;-73
2023/03/23 01:05:39;;;;;;;8.80;4.63;;;14.20;99.90;;;;;;7284811;19;20283;-73
2023/03/23 01:08:05;;;;;;;10.73;4.37;;;14.30;99.90;;;;;;7286884;19;20666;-73
2023/03/23 01:10:32;;;;;;;8.17;4.43;;;14.20;99.90;;;;;;7284891;19;20194;-74
2023/03/23 01:13:00;;;;;;;7.97;4.53;;;14.20;99.90;;;;;;7286694;19;20216;-74
2023/03/23 01:15:28;;;;;;;12.30;4.70;;;14.20;99.90;;;;;;7285922;19;20194;-74
2023/03/23 01:17:54;;;;;;;8.60;4.10;;;14.20;99.90;;;;;;7284520;19;20195;-74
2023/03/23 01:20:20;;;;;;;9.37;4.67;;;14.10;99.90;;;;;;7286370;19;20199;-73
2023/03/23 01:22:46;;;;;;;9.90;4.60;;;14.20;99.90;;;;;;7285925;19;20587;-74
2023/03/23 01:25:13;;;;;;;10.43;4.37;;;14.10;99.90;;;;;;7284413;19;20185;-75
2023/03/23 01:27:40;;;;;;;8.83;4.87;;;14.10;99.90;;;;;;7302208;19;20191;-74
2023/03/23 01:30:08;;;;;;;9.97;4.60;;;14.10;99.90;;;;;;7307352;19;20187;-74
2023/03/23 01:32:34;;;;;;;9.40;4.00;;;14.10;99.90;;;;;;7285949;19;20191;-73
2023/03/23 01:35:01;;;;;;;7.50;4.13;;;14.10;99.90;;;;;;7285252;19;20688;-74
2023/03/23 01:37:26;;;;;;;9.30;4.37;;;14.20;99.90;;;;;;7284996;19;20199;-74
2023/03/23 01:39:55;;;;;;;10.13;4.30;;;14.20;99.90;;;;;;7286122;19;20197;-74
2023/03/23 01:42:25;;;;;;;7.33;4.00;;;14.20;99.90;;;;;;7284439;19;20186;-73
2023/03/23 01:44:51;;;;;;;7.93;3.53;;;14.20;99.90;;;;;;7283477;19;20195;-74
2023/03/23 01:47:23;;;;;;;8.80;4.60;;;14.20;99.90;;;;;;7284166;19;20192;-74
2023/03/23 01:49:50;;;;;;;9.40;3.87;;;14.10;99.90;;;;;;7284298;19;20192;-74
2023/03/23 01:52:26;;;;;;;9.93;3.70;;;14.10;99.90;;;;;;7282725;19;20672;-75
2023/03/23 01:54:58;;;;;;;9.97;4.10;;;14.20;99.90;;;;;;7284365;19;20283;-74
2023/03/23 01:57:29;;;;;;;9.07;3.80;;;14.10;99.90;;;;;;7283525;19;20192;-74
2023/03/23 01:59:59;;;;;;;9.00;3.70;;;14.10;99.90;;;;;;7284217;19;20204;-75
2023/03/23 02:02:28;;;;;;;8.30;3.37;;;14.20;99.90;;;;;;7283941;19;20191;-76
2023/03/23 02:05:02;;;;;;;8.40;3.83;;;14.10;99.90;;;;;;7282535;19;20191;-74
2023/03/23 02:07:31;;;;;;;11.50;3.77;;;14.30;99.90;;;;;;7282628;19;20188;-74
2023/03/23 02:09:59;;;;;;;9.17;3.23;;;14.20;99.90;;;;;;7283552;19;20600;-73
2023/03/23 02:12:25;;;;;;;9.93;3.17;;;14.20;99.90;;;;;;7282371;19;20258;-75
2023/03/23 02:14:52;;;;;;;7.73;2.93;;;14.20;99.90;;;;;;7279775;19;20525;-75
2023/03/23 02:17:24;;;;;;;5.93;2.70;;;14.20;99.90;;;;;;7282394;19;20209;-74
2023/03/23 02:20:06;;;;;;;7.40;2.70;;;14.20;99.90;;;;;;7284562;19;20641;-74
2023/03/23 02:22:56;;;;;;;6.90;2.30;;;14.20;99.90;;;;;;7285215;19;20199;-74
2023/03/23 02:25:46;;;;;;;6.10;1.73;;;14.20;99.90;;;;;;7180310;19;2004641;-74
2023/03/23 02:28:54;;;;;;;5.97;1.97;;;14.20;99.90;;;;;;7262088;19;20609;-75
2023/03/23 02:31:53;;;;;;;6.93;1.93;;;14.20;99.90;;;;;;7180519;19;2004559;-75
2023/03/23 02:34:31;;;;;;;5.60;1.80;;;14.10;99.90;;;;;;7180596;19;2005698;-75
2023/03/23 02:37:05;;;;;;;6.00;1.80;;;14.10;99.90;;;;;;7282795;19;20189;-74
2023/03/23 02:39:48;;;;;;;7.40;1.73;;;14.20;99.90;;;;;;7282805;19;20558;-74
2023/03/23 02:42:22;;;;;;;8.17;1.70;;;14.30;99.90;;;;;;7180744;19;2006591;-74
2023/03/23 02:44:51;;;;;;;7.27;1.43;;;14.20;99.90;;;;;;7281457;19;20290;-74
2023/03/23 02:47:24;;;;;;;5.33;1.70;;;14.20;99.90;;;;;;7284036;19;20201;-75
2023/03/23 02:49:53;;;;;;;3.30;1.43;;;14.20;99.90;;;;;;7281656;19;20196;-74
2023/03/23 02:52:24;;;;;;;5.23;1.57;;;14.20;99.90;;;;;;7283433;19;20324;-74
2023/03/23 02:54:54;;;;;;;4.63;1.30;;;14.20;99.90;;;;;;7283790;19;20192;-74
2023/03/23 02:57:22;;;;;;;6.03;1.47;;;14.20;99.90;;;;;;7282820;19;20227;-74
2023/03/23 02:59:48;;;;;;;5.60;1.73;;;14.10;99.90;;;;;;7283200;19;20214;-74
2023/03/23 03:02:33;;;;;;;7.80;1.20;;;14.00;99.90;;;;;;7282840;19;20188;-74
2023/03/23 03:05:28;;;;;;;5.90;1.50;;;14.00;99.90;;;;;;7281526;19;20212;-74
2023/03/23 03:07:59;;;;;;;5.57;1.37;;;14.00;99.90;;;;;;7181102;19;2004511;-74
2023/03/23 03:10:30;;;;;;;8.00;1.50;;;14.10;99.90;;;;;;7282931;19;20530;-74
2023/03/23 03:13:07;;;;;;;6.20;1.40;;;14.00;99.90;;;;;;7281147;19;20193;-74
2023/03/23 03:15:43;;;;;;;6.20;1.10;;;14.10;99.90;;;;;;7282307;19;20184;-74
2023/03/23 03:18:22;;;;;;;6.87;1.57;;;14.10;99.90;;;;;;7278546;19;20278;-74
2023/03/23 03:20:58;;;;;;;5.67;1.30;;;14.10;99.90;;;;;;7283170;19;20205;-74
2023/03/23 03:23:26;;;;;;;6.40;1.50;;;14.10;99.90;;;;;;7281812;19;20220;-74
2023/03/23 03:25:57;;;;;;;5.77;1.33;;;14.00;99.90;;;;;;7282316;19;20185;-74
2023/03/23 03:28:31;;;;;;;6.37;1.60;;;14.10;99.90;;;;;;7288972;19;20182;-74
2023/03/23 03:31:00;;;;;;;6.23;1.50;;;14.00;99.90;;;;;;7288882;19;20193;-75
2023/03/23 03:33:30;;;;;;;6.60;2.17;;;14.10;99.90;;;;;;7288204;19;20493;-74
2023/03/23 03:36:01;;;;;;;8.03;1.53;;;14.10;99.90;;;;;;7288617;19;20195;-74
2023/03/23 03:38:27;;;;;;;6.47;1.80;;;14.10;99.90;;;;;;7287995;19;20205;-75
2023/03/23 03:40:54;;;;;;;7.20;1.60;;;14.10;99.90;;;;;;7288213;19;20264;-75
2023/03/23 03:43:20;;;;;;;7.20;1.80;;;14.10;99.90;;;;;;7288244;19;20193;-74
2023/03/23 03:45:46;;;;;;;6.33;1.67;;;14.10;99.90;;;;;;7287151;19;20183;-74
2023/03/23 03:48:12;;;;;;;7.77;2.20;;;14.00;99.90;;;;;;7287276;19;20186;-74
2023/03/23 03:50:38;;;;;;;5.83;1.70;;;14.00;99.90;;;;;;7308006;19;20207;-74
2023/03/23 03:53:05;;;;;;;6.23;1.57;;;14.00;99.90;;;;;;7288285;19;20189;-74
2023/03/23 03:55:35;;;;;;;7.07;1.83;;;14.00;99.90;;;;;;7288063;19;20202;-74
2023/03/23 03:58:04;;;;;;;9.40;1.60;;;14.00;99.90;;;;;;7287403;19;20213;-74
2023/03/23 04:00:50;;;;;;;7.83;1.27;;;14.00;99.90;;;;;;7185332;19;2004548;-74
2023/03/23 04:03:20;;;;;;;9.93;1.70;;;14.10;99.90;;;;;;7286408;19;20188;-74
2023/03/23 04:05:59;;;;;;;11.93;1.77;;;14.00;99.90;;;;;;7287331;19;20194;-74
2023/03/23 04:08:26;;;;;;;7.97;1.50;;;14.00;99.90;;;;;;7288525;19;20642;-74
2023/03/23 04:10:53;;;;;;;10.63;1.70;;;14.00;99.90;;;;;;7286347;19;20656;-73
2023/03/23 04:13:20;;;;;;;8.37;1.50;;;13.90;99.90;;;;;;7287163;19;20214;-74
2023/03/23 04:16:18;;;;;;;10.80;1.77;;;13.90;99.90;;;;;;7184603;19;2004641;-74
2023/03/23 04:18:47;;;;;;;8.03;1.40;;;13.80;99.90;;;;;;7286495;19;20291;-74
2023/03/23 04:21:14;;;;;;;9.63;1.60;;;13.70;99.90;;;;;;7285314;19;20552;-74
2023/03/23 04:23:40;;;;;;;6.07;1.47;;;13.80;99.90;;;;;;7297931;19;20181;-74
2023/03/23 04:26:07;;;;;;;10.70;1.40;;;13.80;99.90;;;;;;7308910;19;20611;-74
2023/03/23 04:28:38;;;;;;;11.93;1.90;;;13.90;99.90;;;;;;7286617;19;20198;-74
2023/03/23 04:31:30;;;;;;;7.67;1.30;;;13.90;99.90;;;;;;7184019;19;2004641;-74
2023/03/23 04:34:08;;;;;;;10.20;1.50;;;13.90;99.90;;;;;;7286403;19;20223;-74
2023/03/23 04:36:40;;;;;;;7.57;1.50;;;13.90;99.90;;;;;;7279717;19;20660;-74
2023/03/23 04:39:13;;;;;;;6.37;1.23;;;13.80;99.90;;;;;;7285986;19;20281;-75
2023/03/23 04:41:40;;;;;;;7.37;1.47;;;13.80;99.90;;;;;;7302093;19;20711;-74
2023/03/23 04:44:21;;;;;;;8.97;1.40;;;13.80;99.90;;;;;;7285782;19;20702;-74
2023/03/23 04:46:55;;;;;;;9.33;1.50;;;13.90;99.90;;;;;;7286022;19;20191;-74
2023/03/23 04:49:22;;;;;;;5.07;1.37;;;13.90;99.90;;;;;;7286574;19;20191;-74
2023/03/23 04:51:53;;;;;;;7.20;1.60;;;13.90;99.90;;;;;;7285590;19;20274;-74
2023/03/23 04:54:28;;;;;;;4.17;1.30;;;13.80;99.90;;;;;;7286314;19;20192;-74
2023/03/23 04:56:55;;;;;;;7.93;1.50;;;13.70;99.90;;;;;;7285106;19;20190;-74
2023/03/23 04:59:27;;;;;;;6.30;1.40;;;13.60;99.90;;;;;;7284202;19;20183;-74
2023/03/23 05:02:05;;;;;;;7.87;1.60;;;13.60;99.90;;;;;;7286793;19;20187;-74
2023/03/23 05:04:33;;;;;;;8.30;2.03;;;13.60;99.90;;;;;;7283758;19;20675;-74
2023/03/23 05:07:08;;;;;;;8.10;2.17;;;13.50;99.90;;;;;;7285440;19;20184;-74
2023/03/23 05:09:41;;;;;;;10.90;2.30;;;13.50;99.90;;;;;;7264393;19;20197;-74
2023/03/23 05:12:09;;;;;;;9.53;2.20;;;13.50;99.90;;;;;;7306210;19;20203;-74
2023/03/23 05:14:44;;;;;;;8.03;1.90;;;13.50;99.90;;;;;;7183689;19;2004432;-74
2023/03/23 05:17:16;;;;;;;5.77;1.60;;;13.60;99.90;;;;;;7285991;19;20262;-74
2023/03/23 05:19:47;;;;;;;7.67;1.77;;;13.60;99.90;;;;;;7285082;19;20194;-74
2023/03/23 05:22:32;;;;;;;7.90;1.87;;;13.60;99.90;;;;;;7286086;19;20215;-74
2023/03/23 05:24:59;;;;;;;7.70;1.70;;;13.60;99.90;;;;;;7283794;19;20194;-74
2023/03/23 05:27:30;;;;;;;8.30;1.70;;;13.50;99.90;;;;;;7285682;19;20200;-74
2023/03/23 05:30:00;;;;;;;8.27;1.60;;;13.50;99.90;;;;;;7285013;19;20258;-74
2023/03/23 05:32:28;;;;;;;8.33;1.60;;;13.50;99.90;;;;;;7284235;19;20199;-75
2023/03/23 05:35:00;;;;;;;4.97;1.50;;;13.50;99.90;;;;;;7283552;19;20222;-75
2023/03/23 05:37:31;;;;;;;8.33;1.80;;;13.50;99.90;;;;;;7284306;19;20202;-75
2023/03/23 05:40:06;;;;;;;7.97;1.60;;;13.40;99.90;;;;;;7285858;19;20206;-74
2023/03/23 05:42:45;;;;;;;12.97;1.97;;;13.40;99.90;;;;;;7262588;19;20204;-75
2023/03/23 05:45:27;;;;;;;9.03;2.03;;;13.40;99.90;;;;;;7283234;19;20255;-74
2023/03/23 05:47:53;;;;;;;6.60;1.67;;;13.40;99.90;;;;;;7285204;19;20255;-75
2023/03/23 05:50:21;;;;;;;7.73;1.97;;;13.40;99.90;;;;;;7283440;19;20183;-75
2023/03/23 05:52:48;;;;;;;7.97;1.63;;;13.40;99.90;;;;;;7283550;19;20216;-75
2023/03/23 05:55:15;;;;;;;6.40;1.67;;;13.40;99.90;;;;;;7280857;19;20597;-73
2023/03/23 05:57:45;;;;;;;7.43;1.70;;;13.50;99.90;;;;;;7283996;19;20215;-74
2023/03/23 06:00:23;;;;;;;7.57;1.90;;;13.50;99.90;;;;;;7283014;19;20200;-74
2023/03/23 06:03:00;;;;;;;9.47;1.90;;;13.50;99.90;;;;;;7284855;19;20667;-74
2023/03/23 06:05:46;;;;;;;7.10;1.80;;;13.50;99.90;;;;;;7273394;19;20194;-73
2023/03/23 06:08:15;;;;;;;6.50;1.87;;;13.50;99.90;;;;;;7284844;19;20186;-73
2023/03/23 06:10:41;;;;;;;10.10;2.20;;;13.60;99.90;;;;;;7282932;19;20185;-73
2023/03/23 06:13:07;;;;;;;11.63;2.57;;;13.60;99.90;;;;;;7306125;19;20186;-73
2023/03/23 06:15:45;;;;;;;8.60;2.03;;;13.60;99.90;;;;;;7183720;19;2006144;-74
2023/03/23 06:18:21;;;;;;;9.10;1.83;;;13.60;99.90;;;;;;7283344;19;20251;-73
2023/03/23 06:21:04;;;;;;;8.47;1.90;;;13.70;99.90;;;;;;7283705;19;20732;-73
2023/03/23 06:23:46;;;;;;;10.67;2.23;;;13.70;99.90;;;;;;7179660;19;2004816;-72
2023/03/23 06:26:16;;;;;;;11.63;2.00;;;13.70;99.90;;;;;;7282370;19;20250;-74
2023/03/23 06:28:44;;;;;;;8.30;1.80;;;13.70;99.90;;;;;;7283066;19;20194;-73
2023/03/23 06:31:11;;;;;;;8.60;1.93;;;13.70;99.90;;;;;;7293188;19;20192;-73
2023/03/23 06:33:38;;;;;;;10.60;2.03;;;13.70;99.90;;;;;;7304716;19;20198;-73
2023/03/23 06:36:04;;;;;;;7.70;1.90;;;13.70;99.90;;;;;;7283701;19;20714;-73
2023/03/23 06:39:05;;;;;;;10.13;2.00;;;13.80;99.90;;;;;;7179301;19;2005139;-74
2023/03/23 06:41:45;;;;;;;10.67;2.17;;;13.70;99.90;;;;;;7181854;19;2004509;-76
2023/03/23 06:44:13;;;;;;;9.77;2.10;;;13.70;99.90;;;;;;7284064;19;20220;-76
2023/03/23 06:46:40;;;;;;;6.83;2.20;;;13.70;99.90;;;;;;7305968;19;20646;-76
2023/03/23 06:49:24;;;;;;;5.83;1.80;;;13.70;99.90;;;;;;7180973;19;2004538;-76
2023/03/23 06:51:56;;;;;;;9.90;2.00;;;13.70;99.90;;;;;;7282381;19;20566;-76
2023/03/23 06:54:22;;;;;;;8.53;1.87;;;13.60;99.90;;;;;;7283236;19;20196;-76
2023/03/23 06:56:48;;;;;;;9.67;2.27;;;13.70;99.90;;;;;;7283449;19;20203;-76
2023/03/23 06:59:14;;;;;;;9.53;2.37;;;13.60;99.90;;;;;;7282588;19;20669;-76
2023/03/23 07:01:40;;;;;;;7.47;2.00;;;13.70;99.90;;;;;;7295414;19;20203;-75
2023/03/23 07:04:05;;;;;;;10.33;1.83;;;13.70;99.90;;;;;;7297260;19;20203;-75
2023/03/23 07:06:51;;;;;;;10.90;2.80;;;13.60;99.90;;;;;;7180345;19;2004620;-75
2023/03/23 07:09:17;;;;;;;8.23;2.10;;;13.70;99.90;;;;;;7281630;19;20209;-76
2023/03/23 07:11:45;;;;;;;8.67;2.37;;;13.80;99.90;;;;;;7282149;19;20536;-76
2023/03/23 07:14:21;;;;;;;6.87;1.93;;;13.80;99.90;;;;;;7284320;19;20198;-75
2023/03/23 07:16:47;;;;;;;8.93;2.20;;;13.70;99.90;;;;;;7283231;19;20260;-77
2023/03/23 07:19:13;;;;;;;9.60;2.10;;;13.80;99.90;;;;;;7282350;19;20229;-76
2023/03/23 07:21:39;;;;;;;8.87;2.03;;;13.80;99.90;;;;;;7301782;19;20209;-75
2023/03/23 07:24:06;;;;;;;9.93;1.87;;;13.80;99.90;;;;;;7296682;19;20181;-75
2023/03/23 07:27:07;;;;;;;6.83;2.17;;;13.90;99.90;;;;;;7181824;19;2004545;-76
2023/03/23 07:29:35;;;;;;;9.50;1.90;;;13.70;99.90;;;;;;7281796;19;20189;-75
2023/03/23 07:32:11;;;;;;;9.27;2.03;;;13.60;99.90;;;;;;7283394;19;20188;-76
2023/03/23 07:34:38;;;;;;;7.50;1.80;;;13.50;99.90;;;;;;7281654;19;20190;-76
2023/03/23 07:37:13;;;;;;;7.27;1.50;;;13.50;99.90;;;;;;7261054;19;20526;-75
2023/03/23 07:39:41;;;;;;;7.93;1.50;;;13.50;99.90;;;;;;7281367;19;20189;-76
2023/03/23 07:42:09;;;;;;;7.20;1.80;;;13.50;99.90;;;;;;7304656;19;20199;-76
2023/03/23 07:44:47;;;;;;;8.50;1.40;;;13.50;99.90;;;;;;7178691;19;2004316;-76
2023/03/23 07:47:13;;;;;;;7.63;1.50;;;13.50;99.90;;;;;;7279747;19;20198;-76
2023/03/23 07:49:40;;;;;;;4.83;1.27;;;13.50;99.90;;;;;;7295944;19;20581;-76
2023/03/23 07:52:22;;;;;;;3.93;1.03;;;13.50;99.90;;;;;;7280294;19;20523;-76
2023/03/23 07:54:47;;;;;;;5.13;1.10;;;13.30;99.90;;;;;;7282632;19;20199;-75
2023/03/23 07:57:32;;;;;;;6.30;1.07;;;13.40;99.90;;;;;;7280855;19;20198;-76
2023/03/23 07:59:59;;;;;;;7.47;1.10;;;13.40;99.90;;;;;;7280929;19;20198;-75
2023/03/23 08:02:26;;;;;;;7.53;0.80;;;13.40;99.90;;;;;;7281365;19;20198;-75
2023/03/23 08:05:31;;;;;;;6.53;0.87;;;13.30;99.90;;;;;;7178004;19;2004651;-76
2023/03/23 08:08:24;;;;;;;5.53;0.90;;;13.30;99.90;;;;;;7177978;19;2004810;-76
2023/03/23 08:10:55;;;;;;;4.77;1.10;;;13.30;99.90;;;;;;7282028;19;20198;-76
2023/03/23 08:14:00;;;;;;;4.03;0.87;;;13.20;99.90;;;;;;7181873;19;2004729;-76
2023/03/23 08:16:44;;;;;;;2.37;0.80;;;13.10;99.90;;;;;;7264667;19;20201;-76
2023/03/23 08:19:23;;;;;;;4.00;1.23;;;13.00;99.90;;;;;;7287967;19;20682;-75
2023/03/23 08:21:49;;;;;;;5.07;0.90;;;12.80;99.90;;;;;;7287659;19;20195;-75
2023/03/23 08:24:34;;;;;;;3.60;1.07;;;12.80;99.90;;;;;;7287987;19;20193;-76
2023/03/23 08:27:29;;;;;;;5.17;1.17;;;12.80;99.90;;;;;;7183981;19;2004662;-76
2023/03/23 08:30:26;;;;;;;5.30;1.00;;;12.90;99.90;;;;;;7184523;19;2004641;-76
2023/03/23 08:33:08;;;;;;;5.07;1.03;;;12.90;99.90;;;;;;7287933;19;20197;-75
2023/03/23 08:35:56;;;;;;;4.23;0.93;;;12.80;99.90;;;;;;7184437;19;2004416;-75
2023/03/23 08:38:40;;;;;;;6.17;1.10;;;12.90;99.90;;;;;;7275605;19;20205;-76
2023/03/23 08:41:25;;;;;;;6.27;1.37;;;12.90;99.90;;;;;;7286912;19;20194;-75
2023/03/23 08:44:08;;;;;;;6.07;0.90;;;12.90;99.90;;;;;;7286680;19;20289;-75
2023/03/23 08:46:56;;;;;;;3.80;1.00;;;13.00;99.90;;;;;;7184849;19;2004587;-75
2023/03/23 08:50:02;;;;;;;3.90;0.90;;;12.80;99.90;;;;;;7184810;19;2004685;-76
2023/03/23 08:52:34;;;;;;;6.87;1.03;;;12.90;99.90;;;;;;7286322;19;20201;-75
2023/03/23 08:55:32;;;;;;;3.77;0.90;;;13.10;99.90;;;;;;7183956;19;2004401;-76
2023/03/23 08:58:12;;;;;;;4.27;1.00;;;13.00;99.90;;;;;;7265168;19;20258;-76
2023/03/23 09:01:06;;;;;;;4.67;1.10;;;13.00;99.90;;;;;;7285857;19;20186;-75
2023/03/23 09:03:43;;;;;;;5.40;1.03;;;13.00;99.90;;;;;;7263810;19;20289;-75
2023/03/23 09:06:22;;;;;;;6.37;1.47;;;13.00;99.90;;;;;;7284712;19;20186;-75
2023/03/23 09:08:48;;;;;;;4.87;1.10;;;13.00;99.90;;;;;;7286173;19;20233;-75
2023/03/23 09:11:14;;;;;;;6.73;1.40;;;13.00;99.90;;;;;;7286584;19;20212;-76
2023/03/23 09:13:40;;;;;;;6.53;1.87;;;13.00;99.90;;;;;;7307352;19;20804;-75
2023/03/23 09:16:07;;;;;;;5.97;1.30;;;13.00;99.90;;;;;;7304847;19;20193;-76
2023/03/23 09:18:33;;;;;;;5.57;1.37;;;13.10;99.90;;;;;;7283825;19;20200;-77
2023/03/23 09:20:59;;;;;;;7.40;1.30;;;13.10;99.90;;;;;;7285245;19;20543;-76
2023/03/23 09:23:26;;;;;;;4.77;1.00;;;13.20;99.90;;;;;;7283851;19;20254;-76
2023/03/23 09:25:52;;;;;;;5.00;0.93;;;12.90;99.90;;;;;;7284012;19;20203;-75
2023/03/23 09:28:18;;;;;;;3.83;1.10;;;12.90;99.90;;;;;;7285594;19;20207;-75
2023/03/23 09:30:45;;;;;;;4.30;0.97;;;13.30;99.90;;;;;;7285957;19;20190;-75
2023/03/23 09:33:11;;;;;;;4.43;0.93;;;13.70;99.90;;;;;;7291209;19;20212;-76
2023/03/23 09:35:38;;;;;;;3.43;1.00;;;13.80;99.90;;;;;;7308007;19;20260;-76
2023/03/23 09:38:05;;;;;;;4.53;1.23;;;14.10;99.90;;;;;;7283842;19;20305;-75
2023/03/23 09:40:57;;;;;;;6.13;1.10;;;14.40;99.90;;;;;;7284615;19;20194;-76
2023/03/23 09:43:41;;;;;;;4.20;1.10;;;14.90;99.90;;;;;;7183173;19;2006061;-76
2023/03/23 09:46:33;;;;;;;3.77;1.10;;;15.40;99.90;;;;;;7284484;19;20292;-76
2023/03/23 09:49:15;;;;;;;3.30;1.13;;;15.80;99.90;;;;;;7182835;19;2004568;-76
2023/03/23 09:51:51;;;;;;;4.03;1.40;;;16.10;99.90;;;;;;7274469;19;20202;-76
2023/03/23 09:54:28;;;;;;;3.00;1.20;;;16.30;99.90;;;;;;7284869;19;20256;-75
2023/03/23 09:56:55;;;;;;;7.23;2.63;;;16.20;99.90;;;;;;7284722;19;20203;-76
2023/03/23 09:59:46;;;;;;;4.77;1.67;;;16.00;99.90;;;;;;7284409;19;20185;-76
2023/03/23 10:02:19;;;;;;;4.30;1.23;;;16.20;99.90;;;;;;7262281;19;20287;-76
2023/03/23 10:04:50;;;;;;;5.07;1.70;;;16.40;99.90;;;;;;7283786;19;20553;-76
2023/03/23 10:07:33;;;;;;;4.73;1.50;;;16.80;99.90;;;;;;7283041;19;20183;-75
2023/03/23 10:10:02;;;;;;;5.10;1.43;;;17.00;99.90;;;;;;7284349;19;20553;-76
2023/03/23 10:12:42;;;;;;;4.97;1.43;;;17.10;99.90;;;;;;7284266;19;20206;-76
2023/03/23 10:15:17;;;;;;;6.50;1.70;;;17.00;99.90;;;;;;7285281;19;20191;-76
2023/03/23 10:18:00;;;;;;;4.40;1.47;;;17.10;99.90;;;;;;7262287;19;20192;-76
2023/03/23 10:20:41;;;;;;;6.40;1.50;;;17.10;99.90;;;;;;7284921;19;20195;-76
2023/03/23 10:23:19;;;;;;;5.10;1.80;;;17.70;99.90;;;;;;7284525;19;20694;-76
2023/03/23 10:26:16;;;;;;;6.50;1.80;;;17.90;99.90;;;;;;7181295;19;2004997;-76
2023/03/23 10:28:45;;;;;;;8.57;2.40;;;17.70;99.90;;;;;;7262134;19;20193;-76
2023/03/23 10:31:24;;;;;;;7.40;1.73;;;17.40;99.90;;;;;;7290756;19;20194;-75
2023/03/23 10:33:53;;;;;;;7.00;1.93;;;17.40;99.90;;;;;;7284709;19;20185;-76
2023/03/23 10:36:37;;;;;;;8.57;1.70;;;17.40;99.90;;;;;;7281967;19;20635;-76
2023/03/23 10:39:09;;;;;;;7.73;2.10;;;17.40;99.90;;;;;;7282674;19;20180;-76
2023/03/23 10:41:35;;;;;;;7.63;2.43;;;17.50;99.90;;;;;;7284460;19;20192;-76
2023/03/23 10:44:07;;;;;;;10.40;2.20;;;17.70;99.90;;;;;;7285211;19;20185;-75
2023/03/23 10:46:39;;;;;;;8.50;2.03;;;17.50;99.90;;;;;;7282570;19;20217;-76
2023/03/23 10:49:12;;;;;;;7.63;2.00;;;17.40;99.90;;;;;;7284517;19;20192;-75
2023/03/23 10:51:44;;;;;;;7.43;1.87;;;17.40;99.90;;;;;;7288638;19;20183;-76
2023/03/23 10:54:10;;;;;;;12.77;2.33;;;17.40;99.90;;;;;;7282843;19;20202;-75
2023/03/23 10:56:41;;;;;;;8.47;2.20;;;17.70;99.90;;;;;;7294800;19;20183;-76
2023/03/23 10:59:32;;;;;;;6.57;1.80;;;18.10;99.90;;;;;;7276398;19;20664;-75
2023/03/23 11:02:03;;;;;;;9.50;2.40;;;18.70;99.90;;;;;;7282104;19;20196;-75
2023/03/23 11:04:32;;;;;;;9.30;2.33;;;19.20;99.90;;;;;;7282786;19;20200;-75
2023/03/23 11:07:01;;;;;;;8.20;1.90;;;19.40;99.90;;;;;;7282553;19;20192;-76
2023/03/23 11:09:38;;;;;;;11.27;3.80;;;19.60;99.90;;;;;;7282130;19;20208;-76
2023/03/23 11:12:15;;;;;;;14.97;5.43;;;19.00;99.90;;;;;;7282526;19;20226;-76
2023/03/23 11:14:42;;;;;;;13.73;6.10;;;18.40;99.90;;;;;;7266363;19;20193;-75
2023/03/23 11:17:25;;;;;;;20.80;8.70;;;18.10;99.90;;;;;;7303411;19;20195;-76
2023/03/23 11:19:52;;;;;;;13.07;4.63;;;18.00;99.90;;;;;;7180289;19;2004991;-76
2023/03/23 11:22:31;;;;;;;30.07;13.27;;;18.00;99.90;;;;;;7282710;19;20189;-76
2023/03/23 11:25:03;;;;;;;12.90;3.10;;;18.00;99.90;;;;;;7282336;19;20201;-76
2023/03/23 11:27:29;;;;;;;32.13;16.77;;;18.00;99.90;;;;;;7281464;19;20203;-76
2023/03/23 11:30:25;;;;;;;17.40;6.70;;;18.00;99.90;;;;;;7283904;19;20200;-76
2023/03/23 11:32:52;;;;;;;12.87;2.70;;;18.00;99.90;;;;;;7179611;19;2004625;-76
2023/03/23 11:35:22;;;;;;;10.63;4.10;;;18.70;99.90;;;;;;7282041;19;20272;-76
2023/03/23 11:37:56;;;;;;;8.67;2.00;;;19.20;99.90;;;;;;7282681;19;20194;-76
2023/03/23 11:40:25;;;;;;;9.00;1.63;;;19.20;99.90;;;;;;7282721;19;20210;-76
2023/03/23 11:43:00;;;;;;;6.47;1.50;;;19.30;99.90;;;;;;7282705;19;20251;-76
2023/03/23 11:45:36;;;;;;;7.30;1.87;;;19.50;99.90;;;;;;7280266;19;20197;-75
2023/03/23 11:48:20;;;;;;;8.30;1.60;;;19.30;99.90;;;;;;7286139;19;20216;-76
2023/03/23 11:50:56;;;;;;;6.40;1.40;;;20.00;99.90;;;;;;7185770;19;2004524;-76
2023/03/23 11:53:40;;;;;;;7.97;1.73;;;20.20;99.90;;;;;;7289354;19;20201;-75
2023/03/23 11:56:29;;;;;;;10.07;1.60;;;21.00;99.90;;;;;;7289635;19;20276;-77
2023/03/23 11:58:56;;;;;;;6.63;1.20;;;21.50;99.90;;;;;;7185156;19;2004435;-76
2023/03/23 12:01:38;;;;;;;7.90;1.60;;;22.10;99.90;;;;;;7288708;19;20223;-77
2023/03/23 12:04:07;;;;;;;6.60;1.60;;;22.90;99.90;;;;;;7287365;19;20200;-77
2023/03/23 12:07:13;;;;;;;6.00;1.77;;;22.20;99.90;;;;;;7286797;19;20196;-76
2023/03/23 12:09:57;;;;;;;7.70;1.80;;;22.00;99.90;;;;;;7186676;19;2004542;-76
2023/03/23 12:12:42;;;;;;;8.20;1.90;;;22.30;99.90;;;;;;7184789;19;2004745;-76
2023/03/23 12:15:18;;;;;;;9.90;1.90;;;21.60;99.90;;;;;;7289041;19;20197;-76
2023/03/23 12:18:28;;;;;;;7.80;1.60;;;21.40;99.90;;;;;;7265056;19;20194;-76
2023/03/23 12:21:15;;;;;;;13.00;2.47;;;20.90;99.90;;;;;;7185159;19;2004619;-76
2023/03/23 12:23:58;;;;;;;8.17;2.03;;;20.50;99.90;;;;;;7274575;19;20219;-76
2023/03/23 12:26:32;;;;;;;8.83;1.80;;;20.00;99.90;;;;;;7288245;19;20673;-76
2023/03/23 12:29:12;;;;;;;8.20;2.00;;;20.10;99.90;;;;;;7288627;19;20229;-76
2023/03/23 12:32:05;;;;;;;9.47;2.30;;;20.10;99.90;;;;;;7287594;19;20191;-75
2023/03/23 12:34:49;;;;;;;13.33;2.13;;;19.70;99.90;;;;;;7185158;19;2004722;-75
2023/03/23 12:37:21;;;;;;;9.33;1.97;;;19.30;99.90;;;;;;7265637;19;20210;-76
2023/03/23 12:40:17;;;;;;;12.23;2.07;;;19.10;99.90;;;;;;7286904;19;20750;-76
2023/03/23 12:43:03;;;;;;;11.90;2.13;;;18.80;99.90;;;;;;7265667;19;20193;-76
2023/03/23 12:46:10;;;;;;;7.70;2.10;;;18.60;99.90;;;;;;7285999;19;20570;-76
2023/03/23 12:48:48;;;;;;;8.57;2.07;;;18.40;99.90;;;;;;7183619;19;2004704;-76
2023/03/23 12:51:22;;;;;;;10.27;2.60;;;19.00;99.90;;;;;;7264764;19;20198;-77
2023/03/23 12:53:51;;;;;;;13.97;2.50;;;19.60;99.90;;;;;;7286864;19;20193;-77
2023/03/23 12:56:38;;;;;;;12.73;2.70;;;19.90;99.90;;;;;;7286231;19;20213;-76
2023/03/23 12:59:14;;;;;;;12.20;3.10;;;19.60;99.90;;;;;;7283955;19;20210;-77
2023/03/23 13:01:45;;;;;;;12.20;2.93;;;19.40;99.90;;;;;;7287137;19;20739;-77
2023/03/23 13:04:46;;;;;;;10.80;2.83;;;19.30;99.90;;;;;;7277464;19;20278;-76
2023/03/23 13:07:22;;;;;;;7.17;1.90;;;19.20;99.90;;;;;;7267784;19;20218;-76
2023/03/23 13:10:03;;;;;;;11.47;2.20;;;19.40;99.90;;;;;;7285683;19;20283;-77
2023/03/23 13:12:30;;;;;;;10.03;1.83;;;19.40;99.90;;;;;;7285590;19;20194;-76
2023/03/23 13:15:23;;;;;;;11.93;2.67;;;19.20;99.90;;;;;;7285802;19;20256;-76
2023/03/23 13:18:09;;;;;;;11.20;2.37;;;19.10;99.90;;;;;;7183726;19;2004639;-76
2023/03/23 13:20:55;;;;;;;7.83;2.00;;;19.20;99.90;;;;;;7284595;19;20188;-76